createdAt,value
2019-05-19T00:00:43.047Z,99.40
2019-05-19T00:03:11.537Z,99.50
2019-05-19T00:05:40.074Z,99.70
2019-05-19T00:08:08.551Z,99.90
2019-05-19T00:10:37.112Z,99.70
2019-05-19T00:13:05.723Z,99.90
2019-05-19T00:15:34.366Z,99.60
2019-05-19T00:18:02.908Z,99.70
2019-05-19T00:20:31.483Z,99.60
2019-05-19T00:22:59.979Z,99.60
2019-05-19T00:25:28.760Z,99.70
2019-05-19T00:27:57.307Z,99.40
2019-05-19T00:30:25.866Z,99.60
2019-05-19T00:32:54.338Z,99.70
2019-05-19T00:35:22.911Z,99.70
2019-05-19T00:37:51.461Z,99.50
2019-05-19T00:40:20.116Z,99.70
2019-05-19T00:42:48.597Z,99.50
2019-05-19T00:45:17.244Z,99.40
2019-05-19T00:47:45.856Z,99.60
2019-05-19T00:50:14.595Z,99.60
2019-05-19T00:52:43.142Z,99.80
2019-05-19T00:55:11.781Z,99.90
2019-05-19T00:57:40.495Z,99.90
2019-05-19T01:00:09.801Z,99.90
2019-05-19T01:02:38.331Z,99.90
2019-05-19T01:05:07.940Z,99.90
2019-05-19T01:07:36.882Z,99.90
2019-05-19T01:10:07.585Z,99.90
2019-05-19T01:12:36.123Z,99.90
2019-05-19T01:15:06.649Z,99.90
2019-05-19T01:17:35.192Z,99.90
2019-05-19T01:20:04.826Z,99.90
2019-05-19T01:22:33.305Z,99.90
2019-05-19T01:25:01.892Z,99.90
2019-05-19T01:27:30.411Z,99.90
2019-05-19T01:29:58.893Z,99.90
2019-05-19T01:32:27.533Z,99.90
2019-05-19T01:34:56.032Z,99.90
2019-05-19T01:37:24.557Z,99.90
2019-05-19T01:39:53.112Z,99.90
2019-05-19T01:42:21.584Z,99.90
2019-05-19T01:44:50.077Z,99.90
2019-05-19T01:47:18.544Z,99.90
2019-05-19T01:49:47.036Z,99.90
2019-05-19T01:52:15.507Z,99.90
2019-05-19T01:54:44.002Z,99.90
2019-05-19T01:57:12.541Z,99.90
2019-05-19T01:59:41.180Z,99.90
2019-05-19T02:02:09.653Z,99.80
2019-05-19T02:04:38.152Z,99.70
2019-05-19T02:07:06.711Z,99.90
2019-05-19T02:09:35.272Z,99.90
2019-05-19T02:12:03.929Z,99.90
2019-05-19T02:14:32.398Z,99.70
2019-05-19T02:17:00.970Z,99.70
2019-05-19T02:19:29.446Z,99.60
2019-05-19T02:21:58.014Z,99.70
2019-05-19T02:24:26.485Z,99.40
2019-05-19T02:26:54.975Z,99.80
2019-05-19T02:29:23.513Z,99.30
2019-05-19T02:31:52.023Z,99.30
2019-05-19T02:34:20.574Z,99.40
2019-05-19T02:36:49.138Z,99.60
2019-05-19T02:39:17.761Z,99.90
2019-05-19T02:41:49.161Z,99.90
2019-05-19T02:44:19.697Z,99.90
2019-05-19T02:46:50.807Z,99.90
2019-05-19T02:49:20.297Z,99.90
2019-05-19T02:51:51.143Z,99.90
2019-05-19T02:54:20.833Z,99.90
2019-05-19T02:56:50.649Z,99.90
2019-05-19T02:59:20.439Z,99.90
2019-05-19T03:02:02.497Z,99.90
2019-05-19T03:04:31.047Z,99.90
2019-05-19T03:06:59.681Z,99.90
2019-05-19T03:09:28.304Z,99.90
2019-05-19T03:11:56.867Z,99.90
2019-05-19T03:14:25.339Z,99.90
2019-05-19T03:16:53.837Z,99.90
2019-05-19T03:19:22.508Z,99.70
2019-05-19T03:21:51.023Z,99.90
2019-05-19T03:24:19.573Z,99.90
2019-05-19T03:26:48.543Z,99.90
2019-05-19T03:29:18.733Z,99.90
2019-05-19T03:32:03.786Z,99.90
2019-05-19T03:34:32.349Z,99.90
2019-05-19T03:37:00.922Z,99.90
2019-05-19T03:39:29.484Z,99.90
2019-05-19T03:41:58.053Z,99.90
2019-05-19T03:44:26.605Z,99.90
2019-05-19T03:46:55.173Z,99.90
2019-05-19T03:49:23.651Z,99.70
2019-05-19T03:51:52.153Z,99.80
2019-05-19T03:54:20.700Z,99.20
2019-05-19T03:56:49.276Z,99.20
2019-05-19T03:59:17.835Z,98.90
2019-05-19T04:01:46.412Z,99.00
2019-05-19T04:04:14.956Z,98.30
2019-05-19T04:06:43.531Z,98.60
2019-05-19T04:09:12.094Z,99.90
2019-05-19T04:11:40.665Z,99.90
2019-05-19T04:14:09.218Z,99.70
2019-05-19T04:16:37.768Z,99.30
2019-05-19T04:19:06.353Z,99.20
2019-05-19T04:21:48.397Z,99.40
2019-05-19T04:24:05.116Z,99.90
2019-05-19T04:26:33.664Z,99.90
2019-05-19T04:29:02.250Z,99.90
2019-05-19T04:31:30.818Z,99.90
2019-05-19T04:33:59.379Z,99.90
2019-05-19T04:36:27.944Z,99.90
2019-05-19T04:38:56.509Z,99.90
2019-05-19T04:41:24.992Z,99.90
2019-05-19T04:43:53.570Z,99.90
2019-05-19T04:46:22.121Z,99.90
2019-05-19T04:48:50.625Z,99.90
2019-05-19T04:51:19.182Z,99.90
2019-05-19T04:53:47.754Z,99.90
2019-05-19T04:56:19.522Z,99.90
2019-05-19T04:58:46.531Z,99.90
2019-05-19T05:01:15.085Z,99.90
2019-05-19T05:03:43.595Z,99.90
2019-05-19T05:06:12.162Z,99.90
2019-05-19T05:08:40.804Z,99.90
2019-05-19T05:11:09.377Z,99.90
2019-05-19T05:13:37.877Z,99.90
2019-05-19T05:16:06.366Z,99.90
2019-05-19T05:18:34.881Z,99.90
2019-05-19T05:21:03.433Z,99.90
2019-05-19T05:23:32.010Z,99.90
2019-05-19T05:26:00.498Z,99.60
2019-05-19T05:28:28.997Z,99.20
2019-05-19T05:30:57.476Z,98.50
2019-05-19T05:33:26.062Z,97.50
2019-05-19T05:35:54.601Z,97.70
2019-05-19T05:38:23.168Z,96.60
2019-05-19T05:40:51.672Z,96.30
2019-05-19T05:43:20.177Z,96.40
2019-05-19T05:45:48.658Z,96.50
2019-05-19T05:48:17.229Z,95.30
2019-05-19T05:50:45.788Z,94.70
2019-05-19T05:53:14.373Z,95.30
2019-05-19T05:55:42.924Z,96.10
2019-05-19T05:58:11.502Z,96.30
2019-05-19T06:00:39.973Z,96.00
2019-05-19T06:03:08.471Z,97.30
2019-05-19T06:05:37.019Z,98.00
2019-05-19T06:08:05.598Z,98.50
2019-05-19T06:10:34.232Z,98.50
2019-05-19T06:13:02.713Z,98.60
2019-05-19T06:15:31.232Z,99.00
2019-05-19T06:17:59.843Z,99.00
2019-05-19T06:20:28.414Z,98.40
2019-05-19T06:22:57.355Z,98.10
2019-05-19T06:25:26.155Z,98.10
2019-05-19T06:27:54.755Z,97.60
2019-05-19T06:30:23.331Z,97.30
2019-05-19T06:32:55.945Z,97.10
2019-05-19T06:35:25.207Z,97.90
2019-05-19T06:37:53.762Z,96.70
2019-05-19T06:40:22.483Z,95.00
2019-05-19T06:42:51.034Z,93.50
2019-05-19T06:45:19.849Z,91.60
2019-05-19T06:47:48.331Z,90.30
2019-05-19T06:50:17.178Z,89.70
2019-05-19T06:52:45.730Z,88.50
2019-05-19T06:55:14.628Z,88.50
2019-05-19T06:57:43.177Z,85.30
2019-05-19T07:00:12.437Z,99.90
2019-05-19T07:02:41.079Z,78.80
2019-05-19T07:05:09.770Z,79.50
2019-05-19T07:07:38.250Z,81.10
2019-05-19T07:10:08.200Z,80.90
2019-05-19T07:12:36.748Z,77.60
2019-05-19T07:15:09.022Z,78.00
2019-05-19T07:17:37.505Z,78.80
2019-05-19T07:20:06.245Z,79.70
2019-05-19T07:22:37.603Z,80.20
2019-05-19T07:25:07.285Z,79.70
2019-05-19T07:27:35.765Z,81.60
2019-05-19T07:30:08.468Z,86.90
2019-05-19T07:32:36.950Z,83.80
2019-05-19T07:35:06.857Z,84.00
2019-05-19T07:37:35.330Z,81.90
2019-05-19T07:40:05.059Z,80.30
2019-05-19T07:42:33.687Z,75.00
2019-05-19T07:45:02.257Z,77.20
2019-05-19T07:47:30.810Z,72.60
2019-05-19T07:49:59.314Z,73.90
2019-05-19T07:52:27.871Z,86.00
2019-05-19T07:54:56.437Z,70.10
2019-05-19T07:57:24.905Z,68.70
2019-05-19T07:59:53.409Z,63.50
2019-05-19T08:02:21.980Z,61.30
2019-05-19T08:04:50.544Z,59.90
2019-05-19T08:07:19.070Z,59.10
2019-05-19T08:09:47.597Z,59.30
2019-05-19T08:12:16.246Z,64.90
2019-05-19T08:14:44.818Z,59.90
2019-05-19T08:17:13.437Z,60.80
2019-05-19T08:19:42.018Z,61.50
2019-05-19T08:22:10.557Z,64.90
2019-05-19T08:24:39.030Z,60.60
2019-05-19T08:27:07.517Z,59.30
2019-05-19T08:29:35.993Z,60.20
2019-05-19T08:32:04.557Z,62.80
2019-05-19T08:34:33.110Z,65.40
2019-05-19T08:37:02.497Z,67.00
2019-05-19T08:39:31.049Z,67.40
2019-05-19T08:41:59.614Z,67.30
2019-05-19T08:44:28.171Z,70.90
2019-05-19T08:46:56.764Z,62.90
2019-05-19T08:49:25.379Z,64.00
2019-05-19T08:51:53.900Z,63.20
2019-05-19T08:54:22.689Z,59.90
2019-05-19T08:56:51.273Z,62.30
2019-05-19T08:59:19.846Z,86.00
2019-05-19T09:01:48.428Z,58.90
2019-05-19T09:04:16.967Z,62.50
2019-05-19T09:06:45.545Z,64.80
2019-05-19T09:09:14.099Z,63.20
2019-05-19T09:11:42.679Z,67.10
2019-05-19T09:14:11.225Z,69.10
2019-05-19T09:16:39.813Z,72.20
2019-05-19T09:19:08.362Z,71.90
2019-05-19T09:21:36.953Z,73.90
2019-05-19T09:24:05.507Z,71.90
2019-05-19T09:26:34.321Z,73.60
2019-05-19T09:29:02.873Z,70.70
2019-05-19T09:31:31.693Z,65.60
2019-05-19T09:34:01.874Z,65.50
2019-05-19T09:36:30.449Z,64.70
2019-05-19T09:38:58.996Z,60.70
2019-05-19T09:41:27.565Z,65.20
2019-05-19T09:43:57.149Z,62.90
2019-05-19T09:46:25.670Z,63.60
2019-05-19T09:49:11.880Z,63.40
2019-05-19T09:51:40.448Z,61.80
2019-05-19T09:54:08.998Z,64.80
2019-05-19T09:56:37.577Z,65.40
2019-05-19T09:59:06.129Z,62.50
2019-05-19T10:01:34.675Z,62.50
2019-05-19T10:04:03.227Z,57.60
2019-05-19T10:06:31.801Z,60.50
2019-05-19T10:09:01.949Z,57.20
2019-05-19T10:11:36.440Z,58.90
2019-05-19T10:14:05.416Z,57.40
2019-05-19T10:16:33.910Z,53.40
2019-05-19T10:19:02.706Z,57.00
2019-05-19T10:21:31.278Z,52.10
2019-05-19T10:23:59.836Z,54.30
2019-05-19T10:26:28.396Z,53.40
2019-05-19T10:28:56.873Z,50.70
2019-05-19T10:31:25.448Z,51.20
2019-05-19T10:33:54.001Z,52.40
2019-05-19T10:36:22.550Z,56.90
2019-05-19T10:38:51.117Z,53.70
2019-05-19T10:41:19.608Z,54.90
2019-05-19T10:43:49.809Z,58.50
2019-05-19T10:46:18.352Z,60.50
2019-05-19T10:48:46.851Z,60.10
2019-05-19T10:51:15.405Z,58.40
2019-05-19T10:53:43.893Z,56.70
2019-05-19T10:56:12.433Z,56.70
2019-05-19T10:58:41.013Z,54.40
2019-05-19T11:01:09.663Z,53.20
2019-05-19T11:03:38.211Z,59.10
2019-05-19T11:06:06.765Z,55.60
2019-05-19T11:08:35.253Z,56.30
2019-05-19T11:11:03.735Z,54.20
2019-05-19T11:13:32.412Z,54.70
2019-05-19T11:16:00.968Z,55.50
2019-05-19T11:20:57.794Z,59.70
2019-05-19T11:23:26.299Z,58.50
2019-05-19T11:25:54.905Z,56.10
2019-05-19T11:28:23.489Z,55.70
2019-05-19T11:30:52.047Z,55.30
2019-05-19T11:33:20.615Z,56.80
2019-05-19T11:35:49.241Z,59.10
2019-05-19T11:38:17.803Z,56.90
2019-05-19T11:40:46.361Z,54.20
2019-05-19T11:43:15.135Z,59.10
2019-05-19T11:45:43.686Z,56.20
2019-05-19T11:48:12.265Z,55.60
2019-05-19T11:50:42.207Z,56.70
2019-05-19T11:53:10.890Z,52.60
2019-05-19T11:55:39.440Z,59.80
2019-05-19T11:58:08.023Z,57.30
2019-05-19T12:00:36.578Z,59.50
2019-05-19T12:03:05.065Z,57.00
2019-05-19T12:05:33.717Z,53.50
2019-05-19T12:08:02.274Z,52.80
2019-05-19T12:10:30.839Z,55.30
2019-05-19T12:12:59.438Z,54.30
2019-05-19T12:15:27.996Z,54.20
2019-05-19T12:17:56.569Z,54.20
2019-05-19T12:20:25.124Z,57.50
2019-05-19T12:22:53.708Z,58.70
2019-05-19T12:25:22.277Z,57.10
2019-05-19T12:27:50.898Z,60.00
2019-05-19T12:30:21.311Z,61.80
2019-05-19T12:32:49.969Z,64.80
2019-05-19T12:35:18.754Z,62.00
2019-05-19T12:37:47.325Z,61.20
2019-05-19T12:40:16.130Z,62.50
2019-05-19T12:42:44.690Z,64.60
2019-05-19T12:45:13.702Z,60.30
2019-05-19T12:47:44.198Z,59.90
2019-05-19T12:50:13.400Z,59.00
2019-05-19T12:52:43.166Z,56.90
2019-05-19T12:55:12.076Z,55.20
2019-05-19T12:57:40.650Z,55.90
2019-05-19T13:00:09.894Z,53.60
2019-05-19T13:02:38.589Z,52.80
2019-05-19T13:05:07.538Z,50.80
2019-05-19T13:07:36.084Z,51.90
2019-05-19T13:10:06.401Z,51.00
2019-05-19T13:12:34.962Z,50.30
2019-05-19T13:15:05.611Z,50.10
2019-05-19T13:17:34.238Z,52.30
2019-05-19T13:20:02.962Z,51.40
2019-05-19T13:22:31.465Z,50.30
2019-05-19T13:25:00.080Z,51.80
2019-05-19T13:27:28.638Z,51.40
2019-05-19T13:29:57.212Z,53.20
2019-05-19T13:32:25.892Z,53.60
2019-05-19T13:34:54.470Z,54.70
2019-05-19T13:37:23.014Z,51.40
2019-05-19T13:39:51.606Z,53.50
2019-05-19T13:42:20.173Z,54.90
2019-05-19T13:44:48.813Z,53.20
2019-05-19T13:47:17.291Z,55.80
2019-05-19T13:49:45.994Z,51.90
2019-05-19T13:52:14.482Z,51.70
2019-05-19T13:54:43.278Z,54.30
2019-05-19T13:57:12.890Z,54.30
2019-05-19T13:59:41.507Z,56.00
2019-05-19T14:02:10.126Z,55.80
2019-05-19T14:04:38.696Z,56.60
2019-05-19T14:07:07.250Z,55.90
2019-05-19T14:09:35.821Z,56.80
2019-05-19T14:12:04.440Z,57.40
2019-05-19T14:14:33.018Z,54.70
2019-05-19T14:17:01.582Z,54.30
2019-05-19T14:19:30.083Z,57.10
2019-05-19T14:21:58.636Z,59.60
2019-05-19T14:24:27.211Z,59.40
2019-05-19T14:26:55.768Z,60.00
2019-05-19T14:29:24.362Z,60.00
2019-05-19T14:31:52.922Z,62.30
2019-05-19T14:34:21.564Z,62.80
2019-05-19T14:36:50.132Z,63.60
2019-05-19T14:39:18.683Z,67.90
2019-05-19T14:41:48.885Z,69.10
2019-05-19T14:44:17.365Z,69.60
2019-05-19T14:46:45.939Z,74.80
2019-05-19T14:49:14.481Z,65.30
2019-05-19T14:51:43.013Z,63.60
2019-05-19T14:54:11.551Z,75.90
2019-05-19T14:56:40.132Z,86.60
2019-05-19T14:59:08.730Z,85.70
2019-05-19T15:01:37.495Z,85.70
2019-05-19T15:04:06.064Z,89.40
2019-05-19T15:06:34.601Z,87.40
2019-05-19T15:09:03.812Z,87.10
2019-05-19T15:11:32.537Z,91.10
2019-05-19T15:14:01.104Z,88.20
2019-05-19T15:16:29.739Z,84.00
2019-05-19T15:18:58.957Z,90.50
2019-05-19T15:21:27.529Z,88.90
2019-05-19T15:23:56.077Z,89.20
2019-05-19T15:26:24.596Z,90.10
2019-05-19T15:28:53.133Z,89.50
2019-05-19T15:31:21.698Z,90.00
2019-05-19T15:33:53.066Z,90.70
2019-05-19T15:36:24.414Z,87.90
2019-05-19T15:38:52.881Z,90.50
2019-05-19T15:41:21.466Z,87.70
2019-05-19T15:43:50.026Z,87.10
2019-05-19T15:46:18.678Z,89.20
2019-05-19T15:48:47.149Z,90.20
2019-05-19T15:51:27.521Z,86.50
2019-05-19T15:53:45.923Z,86.90
2019-05-19T15:56:14.485Z,87.30
2019-05-19T15:58:43.041Z,90.30
2019-05-19T16:01:11.541Z,90.10
2019-05-19T16:03:40.101Z,90.20
2019-05-19T16:06:08.664Z,88.90
2019-05-19T16:08:37.225Z,85.60
2019-05-19T16:11:05.782Z,86.60
2019-05-19T16:13:34.269Z,87.90
2019-05-19T16:16:02.855Z,85.70
2019-05-19T16:18:31.412Z,86.70
2019-05-19T16:20:59.961Z,86.00
2019-05-19T16:23:28.467Z,85.50
2019-05-19T16:25:57.019Z,88.60
2019-05-19T16:28:30.687Z,88.20
2019-05-19T16:30:55.729Z,85.90
2019-05-19T16:33:24.310Z,88.40
2019-05-19T16:35:52.873Z,88.90
2019-05-19T16:38:21.445Z,90.00
2019-05-19T16:40:49.924Z,90.60
2019-05-19T16:43:18.486Z,90.10
2019-05-19T16:45:47.429Z,87.60
2019-05-19T16:48:16.096Z,89.60
2019-05-19T16:50:44.643Z,90.80
2019-05-19T16:53:13.334Z,92.20
2019-05-19T16:55:41.893Z,92.40
2019-05-19T16:58:20.548Z,92.10
2019-05-19T17:00:40.587Z,91.40
2019-05-19T17:03:09.157Z,91.30
2019-05-19T17:05:37.713Z,92.80
2019-05-19T17:08:06.417Z,93.80
2019-05-19T17:10:35.146Z,94.20
2019-05-19T17:13:03.718Z,94.00
2019-05-19T17:15:32.201Z,93.90
2019-05-19T17:18:01.008Z,93.50
2019-05-19T17:20:31.037Z,93.80
2019-05-19T17:22:59.720Z,93.40
2019-05-19T17:25:28.336Z,93.60
2019-05-19T17:27:59.602Z,93.50
2019-05-19T17:30:27.128Z,93.00
2019-05-19T17:32:55.696Z,92.40
2019-05-19T17:35:24.321Z,92.00
2019-05-19T17:37:52.978Z,92.00
2019-05-19T17:40:21.777Z,91.90
2019-05-19T17:42:50.610Z,90.90
2019-05-19T17:45:19.221Z,91.20
2019-05-19T17:47:47.721Z,91.10
2019-05-19T17:50:19.332Z,91.00
2019-05-19T17:52:47.845Z,90.80
2019-05-19T17:55:16.534Z,90.60
2019-05-19T17:57:46.052Z,91.10
2019-05-19T18:00:16.242Z,92.00
2019-05-19T18:02:44.732Z,91.70
2019-05-19T18:05:13.350Z,91.80
2019-05-19T18:07:41.931Z,91.80
2019-05-19T18:10:10.666Z,91.60
2019-05-19T18:12:39.235Z,91.30
2019-05-19T18:15:07.941Z,91.50
2019-05-19T18:17:36.438Z,91.50
2019-05-19T18:20:06.666Z,90.80
2019-05-19T18:22:35.244Z,91.50
2019-05-19T18:25:04.632Z,92.30
2019-05-19T18:27:33.230Z,93.20
2019-05-19T18:30:01.796Z,93.60
2019-05-19T18:32:30.340Z,94.40
2019-05-19T18:34:58.841Z,94.80
2019-05-19T18:37:27.411Z,95.10
2019-05-19T18:39:55.982Z,94.90
2019-05-19T18:42:24.776Z,94.90
2019-05-19T18:44:53.412Z,96.50
2019-05-19T18:47:21.886Z,96.90
2019-05-19T18:49:50.381Z,96.50
2019-05-19T18:52:18.927Z,96.30
2019-05-19T18:54:47.493Z,96.10
2019-05-19T18:57:16.061Z,95.90
2019-05-19T18:59:47.513Z,96.20
2019-05-19T19:02:15.241Z,96.00
2019-05-19T19:04:43.737Z,95.80
2019-05-19T19:07:12.289Z,95.80
2019-05-19T19:09:40.862Z,96.00
2019-05-19T19:12:09.425Z,96.60
2019-05-19T19:14:37.990Z,97.50
2019-05-19T19:17:06.605Z,97.90
2019-05-19T19:19:35.345Z,98.20
2019-05-19T19:22:03.894Z,98.40
2019-05-19T19:24:32.455Z,98.40
2019-05-19T19:27:00.927Z,98.20
2019-05-19T19:29:29.748Z,97.50
2019-05-19T19:31:58.299Z,96.80
2019-05-19T19:34:26.869Z,96.80
2019-05-19T19:36:55.417Z,97.10
2019-05-19T19:39:23.985Z,96.60
2019-05-19T19:41:52.448Z,96.10
2019-05-19T19:44:20.945Z,96.40
2019-05-19T19:46:49.430Z,96.80
2019-05-19T19:49:17.997Z,97.50
2019-05-19T19:51:46.537Z,97.60
2019-05-19T19:54:15.034Z,97.40
2019-05-19T19:56:43.829Z,97.10
2019-05-19T19:59:12.334Z,96.80
2019-05-19T20:01:40.883Z,96.80
2019-05-19T20:04:11.387Z,97.10
2019-05-19T20:06:39.672Z,96.70
2019-05-19T20:09:08.285Z,96.80
2019-05-19T20:11:36.849Z,96.60
2019-05-19T20:14:05.865Z,97.10
2019-05-19T20:16:34.433Z,96.40
2019-05-19T20:19:02.912Z,95.10
2019-05-19T20:21:31.490Z,96.80
2019-05-19T20:23:59.975Z,96.40
2019-05-19T20:26:28.556Z,96.40
2019-05-19T20:28:57.109Z,95.70
2019-05-19T20:31:25.854Z,96.90
2019-05-19T20:33:54.402Z,97.40
2019-05-19T20:36:22.992Z,98.10
2019-05-19T20:38:51.530Z,98.90
2019-05-19T20:41:20.165Z,98.90
2019-05-19T20:43:48.709Z,98.30
2019-05-19T20:46:17.205Z,97.20
2019-05-19T20:48:45.682Z,96.60
2019-05-19T20:51:14.245Z,96.70
2019-05-19T20:53:42.709Z,97.60
2019-05-19T20:56:11.207Z,97.70
2019-05-19T20:58:39.749Z,98.60
2019-05-19T21:01:08.240Z,98.60
2019-05-19T21:03:36.717Z,99.30
2019-05-19T21:06:05.290Z,99.30
2019-05-19T21:08:33.839Z,99.80
2019-05-19T21:11:02.409Z,99.90
2019-05-19T21:13:30.891Z,99.90
2019-05-19T21:15:59.462Z,99.70
2019-05-19T21:18:28.027Z,99.20
2019-05-19T21:20:56.601Z,99.30
2019-05-19T21:23:25.171Z,99.10
2019-05-19T21:25:53.717Z,99.10
2019-05-19T21:28:22.194Z,98.90
2019-05-19T21:31:04.524Z,98.90
2019-05-19T21:33:20.953Z,99.10
2019-05-19T21:35:49.522Z,99.60
2019-05-19T21:38:18.074Z,99.90
2019-05-19T21:40:46.709Z,99.90
2019-05-19T21:43:15.185Z,99.90
2019-05-19T21:45:43.762Z,99.90
2019-05-19T21:48:12.325Z,99.90
2019-05-19T21:50:40.889Z,99.90
2019-05-19T21:53:09.353Z,99.90
2019-05-19T21:55:37.921Z,99.90
2019-05-19T21:58:06.388Z,99.90
2019-05-19T22:00:35.225Z,99.90
2019-05-19T22:03:03.912Z,99.90
2019-05-19T22:05:32.478Z,99.90
2019-05-19T22:08:02.654Z,99.90
2019-05-19T22:10:31.233Z,99.90
2019-05-19T22:12:59.705Z,99.90
2019-05-19T22:15:28.282Z,99.90
2019-05-19T22:17:56.763Z,99.90
2019-05-19T22:20:25.411Z,99.90
2019-05-19T22:22:53.962Z,99.90
2019-05-19T22:25:22.533Z,99.90
2019-05-19T22:27:51.010Z,99.90
2019-05-19T22:30:19.697Z,99.90
2019-05-19T22:32:48.260Z,99.90
2019-05-19T22:35:16.869Z,99.90
2019-05-19T22:37:45.441Z,99.90
2019-05-19T22:40:14.052Z,99.80
2019-05-19T22:42:42.545Z,99.30
2019-05-19T22:45:11.258Z,99.60
2019-05-19T22:47:39.834Z,99.60
2019-05-19T22:50:09.118Z,99.20
2019-05-19T22:52:37.694Z,99.80
2019-05-19T22:55:06.801Z,99.90
2019-05-19T22:57:35.296Z,99.90
2019-05-19T23:00:05.576Z,99.90
2019-05-19T23:02:34.077Z,99.90
2019-05-19T23:05:02.590Z,99.90
2019-05-19T23:07:31.150Z,99.90
2019-05-19T23:09:59.705Z,99.90
2019-05-19T23:12:28.305Z,99.90
2019-05-19T23:14:56.849Z,99.90
2019-05-19T23:17:25.416Z,99.90
2019-05-19T23:19:53.957Z,99.90
2019-05-19T23:22:22.448Z,99.90
2019-05-19T23:24:51.003Z,99.90
2019-05-19T23:27:19.576Z,99.90
2019-05-19T23:29:48.549Z,99.90
2019-05-19T23:32:17.099Z,99.90
2019-05-19T23:34:45.649Z,99.90
2019-05-19T23:37:14.461Z,99.90
2019-05-19T23:39:43.081Z,99.90
2019-05-19T23:42:11.632Z,99.90
2019-05-19T23:44:40.182Z,99.90
2019-05-19T23:47:08.751Z,99.90
2019-05-19T23:49:37.233Z,99.90
2019-05-19T23:52:05.733Z,99.90
2019-05-19T23:54:34.210Z,99.90
2019-05-19T23:57:02.769Z,99.90
2019-05-19T23:59:31.247Z,99.90
